Terminal Aerodrome Forecast
Issued by NWS Denver/Boulder, CO

Home | Current Version | Previous Version | Text Only | Print | Product List | Glossary On
Versions: 1 2 3 4 5 6 7 8 9 10 11 12 13 14 15 16 17 18 19 20 21 22 23 24 25 26 27 28 29 30 31 32 33 34
000
FTUS45 KBOU 202320
TAFDEN
TAF
KDEN 202320Z 2100/2206 08009KT P6SM FEW080 SCT220
     FM210200 13009KT P6SM FEW080 SCT220
     FM210500 18007KT P6SM FEW080 SCT220
     FM210700 21006KT P6SM FEW100 SCT220
     FM211400 VRB05KT P6SM SCT220
     FM211900 02006KT P6SM FEW100 BKN200
     FM220300 24007KT P6SM SCT070 BKN120=

USA.gov is the U.S. government's official web portal to all federal, state and local government web resources and services.